createdAt,value
2023-01-17T00:02:23.892Z,81.56
2023-01-17T00:05:10.686Z,81.46
2023-01-17T00:07:57.366Z,81.94
2023-01-17T00:10:27.309Z,82.18
2023-01-17T00:12:57.992Z,81.99
2023-01-17T00:15:27.940Z,82.00
2023-01-17T00:17:56.011Z,82.24
2023-01-17T00:20:45.628Z,82.31
2023-01-17T00:23:38.156Z,82.27
2023-01-17T00:26:09.781Z,82.28
2023-01-17T00:28:39.794Z,82.44
2023-01-17T00:31:09.938Z,82.11
2023-01-17T00:33:38.300Z,81.58
2023-01-17T00:36:07.102Z,80.94
2023-01-17T00:38:38.537Z,80.43
2023-01-17T00:41:09.951Z,79.72
2023-01-17T00:43:56.681Z,78.66
2023-01-17T00:46:43.387Z,77.87
2023-01-17T00:49:30.824Z,77.24
2023-01-17T00:52:17.327Z,76.49
2023-01-17T00:55:03.942Z,76.26
2023-01-17T00:57:51.074Z,76.27
2023-01-17T01:00:38.489Z,75.95
2023-01-17T01:03:29.888Z,76.07
2023-01-17T01:06:16.629Z,76.11
2023-01-17T01:09:03.610Z,75.93
2023-01-17T01:11:50.241Z,76.03
2023-01-17T01:14:37.430Z,75.65
2023-01-17T01:17:24.133Z,75.76
2023-01-17T01:20:10.984Z,76.04
2023-01-17T01:22:57.656Z,76.17
2023-01-17T01:25:44.558Z,76.14
2023-01-17T01:28:33.325Z,75.82
2023-01-17T01:31:21.513Z,75.93
2023-01-17T01:33:53.707Z,76.09
2023-01-17T01:36:22.315Z,76.17
2023-01-17T01:38:50.417Z,76.07
2023-01-17T01:41:18.558Z,76.15
2023-01-17T01:43:46.515Z,76.32
2023-01-17T01:46:30.500Z,76.36
2023-01-17T01:49:19.012Z,76.07
2023-01-17T01:51:53.031Z,76.33
2023-01-17T01:54:25.820Z,76.54
2023-01-17T01:56:56.697Z,76.32
2023-01-17T01:59:26.173Z,76.39
2023-01-17T02:01:56.206Z,76.29
2023-01-17T02:04:26.710Z,76.31
2023-01-17T02:07:07.414Z,76.27
2023-01-17T02:09:35.529Z,76.48
2023-01-17T02:12:05.040Z,76.65
2023-01-17T02:14:33.106Z,76.77
2023-01-17T02:17:04.353Z,76.89
2023-01-17T02:19:47.599Z,76.79
2023-01-17T02:22:40.532Z,76.76
2023-01-17T02:25:44.744Z,76.70
2023-01-17T02:28:27.872Z,76.54
2023-01-17T02:31:09.562Z,75.75
2023-01-17T02:33:47.047Z,75.75
2023-01-17T02:36:28.235Z,75.88
2023-01-17T02:39:08.309Z,75.85
2023-01-17T02:41:51.500Z,75.74
2023-01-17T02:44:21.013Z,75.66
2023-01-17T02:46:53.013Z,75.63
2023-01-17T02:49:26.679Z,75.75
2023-01-17T02:51:57.478Z,75.90
2023-01-17T02:54:50.552Z,75.86
2023-01-17T02:57:33.078Z,75.90
2023-01-17T03:00:01.354Z,76.09
2023-01-17T03:03:02.398Z,76.04
2023-01-17T03:05:42.706Z,76.20
2023-01-17T03:08:13.024Z,76.34
2023-01-17T03:10:42.685Z,76.36
2023-01-17T03:13:10.653Z,76.54
2023-01-17T03:15:40.236Z,76.59
2023-01-17T03:18:14.173Z,76.54
2023-01-17T03:20:42.541Z,76.73
2023-01-17T03:23:10.751Z,76.51
2023-01-17T03:25:38.893Z,76.46
2023-01-17T03:28:07.278Z,76.44
2023-01-17T03:30:35.455Z,76.53
2023-01-17T03:33:03.714Z,76.66
2023-01-17T03:35:31.896Z,76.71
2023-01-17T03:38:00.268Z,76.79
2023-01-17T03:40:28.336Z,76.89
2023-01-17T03:42:56.279Z,77.18
2023-01-17T03:45:24.381Z,77.08
2023-01-17T03:47:52.517Z,77.18
2023-01-17T03:50:20.714Z,77.30
2023-01-17T03:52:48.994Z,77.44
2023-01-17T03:55:17.578Z,77.53
2023-01-17T03:57:45.644Z,77.84
2023-01-17T04:00:14.328Z,77.81
2023-01-17T04:02:42.433Z,78.00
2023-01-17T04:05:10.894Z,78.39
2023-01-17T04:07:39.272Z,78.35
2023-01-17T04:10:08.264Z,78.26
2023-01-17T04:12:36.524Z,78.35
2023-01-17T04:15:05.006Z,78.55
2023-01-17T04:17:33.683Z,78.81
2023-01-17T04:20:01.873Z,79.16
2023-01-17T04:22:31.793Z,79.20
2023-01-17T04:24:59.964Z,79.45
2023-01-17T04:27:28.230Z,79.49
2023-01-17T04:29:56.827Z,79.61
2023-01-17T04:32:25.089Z,79.51
2023-01-17T04:34:53.379Z,79.48
2023-01-17T04:37:21.432Z,79.02
2023-01-17T04:39:49.439Z,78.41
2023-01-17T04:42:17.480Z,77.71
2023-01-17T04:44:45.538Z,77.03
2023-01-17T04:47:13.926Z,76.88
2023-01-17T04:49:44.115Z,76.46
2023-01-17T04:52:12.726Z,76.09
2023-01-17T04:54:41.723Z,75.60
2023-01-17T04:57:09.724Z,74.98
2023-01-17T04:59:37.772Z,74.70
2023-01-17T05:02:05.838Z,74.58
2023-01-17T05:04:34.322Z,74.36
2023-01-17T05:07:02.582Z,73.82
2023-01-17T05:09:30.853Z,73.60
2023-01-17T05:11:59.038Z,73.65
2023-01-17T05:14:27.518Z,73.71
2023-01-17T05:16:57.641Z,73.76
2023-01-17T05:19:27.140Z,73.62
2023-01-17T05:21:55.303Z,73.47
2023-01-17T05:24:23.490Z,73.55
2023-01-17T05:26:54.977Z,73.55
2023-01-17T05:29:23.308Z,73.47
2023-01-17T05:31:51.481Z,73.56
2023-01-17T05:34:19.660Z,73.71
2023-01-17T05:36:47.933Z,73.80
2023-01-17T05:39:16.718Z,73.92
2023-01-17T05:41:45.505Z,74.23
2023-01-17T05:44:15.422Z,74.34
2023-01-17T05:46:44.164Z,74.54
2023-01-17T05:49:12.277Z,74.83
2023-01-17T05:51:40.550Z,75.10
2023-01-17T05:54:09.035Z,75.14
2023-01-17T05:56:37.103Z,75.43
2023-01-17T05:59:05.101Z,75.77
2023-01-17T06:01:33.442Z,76.18
2023-01-17T06:04:01.616Z,76.39
2023-01-17T06:06:30.001Z,76.60
2023-01-17T06:08:58.173Z,76.91
2023-01-17T06:11:26.866Z,77.37
2023-01-17T06:13:55.030Z,77.61
2023-01-17T06:16:23.494Z,77.65
2023-01-17T06:18:51.592Z,77.84
2023-01-17T06:21:19.978Z,77.83
2023-01-17T06:23:48.347Z,77.54
2023-01-17T06:26:17.222Z,77.54
2023-01-17T06:28:45.410Z,77.58
2023-01-17T06:31:13.846Z,77.57
2023-01-17T06:33:42.097Z,77.56
2023-01-17T06:36:10.128Z,77.53
2023-01-17T06:38:38.195Z,77.62
2023-01-17T06:41:06.415Z,77.62
2023-01-17T06:43:35.153Z,77.76
2023-01-17T06:46:03.340Z,77.80
2023-01-17T06:48:31.820Z,77.97
2023-01-17T06:50:59.878Z,78.02
2023-01-17T06:53:27.773Z,78.09
2023-01-17T06:55:57.823Z,78.43
2023-01-17T06:58:26.139Z,78.51
2023-01-17T07:00:55.207Z,78.73
2023-01-17T07:03:27.430Z,78.82
2023-01-17T07:05:57.317Z,78.79
2023-01-17T07:08:25.485Z,78.90
2023-01-17T07:10:59.056Z,78.83
2023-01-17T07:13:28.643Z,78.91
2023-01-17T07:16:00.220Z,78.87
2023-01-17T07:18:29.445Z,78.92
2023-01-17T07:20:58.245Z,78.59
2023-01-17T07:23:27.223Z,78.57
2023-01-17T07:25:57.440Z,78.42
2023-01-17T07:28:27.464Z,78.28
2023-01-17T07:30:55.632Z,78.05
2023-01-17T07:33:23.816Z,77.89
2023-01-17T07:35:52.292Z,78.01
2023-01-17T07:38:20.552Z,78.01
2023-01-17T07:40:48.630Z,78.14
2023-01-17T07:43:17.617Z,77.94
2023-01-17T07:45:54.378Z,77.55
2023-01-17T07:48:25.037Z,77.02
2023-01-17T07:50:57.648Z,76.50
2023-01-17T07:53:28.557Z,76.32
2023-01-17T07:56:02.231Z,75.79
2023-01-17T07:58:31.180Z,75.38
2023-01-17T08:01:08.581Z,75.04
2023-01-17T08:03:41.684Z,74.79
2023-01-17T08:06:23.505Z,74.72
2023-01-17T08:08:58.975Z,74.55
2023-01-17T08:11:27.173Z,74.34
2023-01-17T08:13:59.491Z,74.21
2023-01-17T08:16:28.902Z,73.95
2023-01-17T08:18:57.988Z,73.75
2023-01-17T08:21:26.066Z,73.52
2023-01-17T08:23:54.237Z,73.18
2023-01-17T08:26:23.486Z,72.86
2023-01-17T08:28:57.285Z,72.56
2023-01-17T08:31:31.267Z,71.98
2023-01-17T08:34:00.954Z,71.86
2023-01-17T08:36:31.417Z,71.36
2023-01-17T08:38:59.565Z,71.13
2023-01-17T08:41:27.977Z,70.70
2023-01-17T08:43:57.127Z,69.38
2023-01-17T08:46:25.505Z,66.44
2023-01-17T08:48:59.191Z,65.26
2023-01-17T08:51:28.118Z,65.75
2023-01-17T08:53:56.836Z,66.38
2023-01-17T08:56:27.097Z,66.86
2023-01-17T08:58:55.487Z,67.54
2023-01-17T09:01:23.995Z,67.85
2023-01-17T09:03:52.717Z,68.01
2023-01-17T09:06:21.628Z,67.85
2023-01-17T09:08:54.890Z,67.56
2023-01-17T09:11:23.005Z,67.43
2023-01-17T09:13:51.076Z,66.59
2023-01-17T09:16:19.192Z,66.28
2023-01-17T09:18:47.460Z,66.38
2023-01-17T09:21:17.773Z,65.89
2023-01-17T09:23:46.036Z,66.28
2023-01-17T09:26:34.469Z,66.12
2023-01-17T09:29:04.276Z,64.59
2023-01-17T09:31:32.864Z,63.08
2023-01-17T09:34:02.194Z,63.18
2023-01-17T09:36:34.166Z,63.57
2023-01-17T09:39:03.119Z,64.13
2023-01-17T09:41:34.490Z,64.82
2023-01-17T09:44:10.103Z,64.68
2023-01-17T09:46:42.980Z,64.32
2023-01-17T09:49:19.258Z,64.64
2023-01-17T09:51:50.754Z,64.87
2023-01-17T09:54:26.712Z,64.81
2023-01-17T09:57:04.458Z,65.25
2023-01-17T10:00:09.702Z,65.63
2023-01-17T10:03:06.336Z,65.51
2023-01-17T10:05:37.583Z,65.06
2023-01-17T10:08:24.090Z,64.34
2023-01-17T10:11:22.065Z,61.56
2023-01-17T10:14:14.808Z,60.51
2023-01-17T10:17:02.533Z,59.66
2023-01-17T10:20:04.306Z,58.90
2023-01-17T10:22:54.514Z,57.08
2023-01-17T10:25:48.781Z,56.29
2023-01-17T10:28:25.859Z,54.09
2023-01-17T10:31:24.733Z,52.78
2023-01-17T10:33:55.396Z,52.02
2023-01-17T10:36:23.559Z,49.09
2023-01-17T10:38:55.424Z,46.49
2023-01-17T10:41:23.586Z,45.94
2023-01-17T10:44:02.206Z,45.32
2023-01-17T10:46:38.563Z,45.97
2023-01-17T10:49:16.907Z,46.01
2023-01-17T10:52:06.681Z,44.07
2023-01-17T10:54:54.187Z,42.57
2023-01-17T10:57:27.872Z,41.43
2023-01-17T11:00:00.718Z,41.87
2023-01-17T11:02:36.838Z,42.27
2023-01-17T11:05:21.825Z,41.96
2023-01-17T11:08:13.636Z,42.64
2023-01-17T11:10:46.630Z,41.82
2023-01-17T11:13:23.836Z,42.85
2023-01-17T11:16:00.956Z,43.61
2023-01-17T11:18:37.156Z,43.14
2023-01-17T11:21:13.700Z,43.08
2023-01-17T11:23:48.984Z,44.54
2023-01-17T11:26:30.125Z,46.43
2023-01-17T11:29:26.872Z,47.36
2023-01-17T11:31:58.823Z,47.27
2023-01-17T11:34:32.941Z,46.35
2023-01-17T11:37:09.940Z,46.07
2023-01-17T11:39:38.196Z,46.13
2023-01-17T11:42:26.945Z,45.23
2023-01-17T11:44:55.330Z,44.73
2023-01-17T11:47:23.607Z,44.98
2023-01-17T11:49:51.781Z,45.34
2023-01-17T11:52:26.352Z,45.18
2023-01-17T11:54:55.812Z,45.21
2023-01-17T11:57:33.430Z,45.66
2023-01-17T12:00:20.001Z,45.06
2023-01-17T12:03:07.122Z,43.87
2023-01-17T12:05:53.780Z,43.31
2023-01-17T12:08:21.895Z,42.89
2023-01-17T12:11:20.076Z,43.60
2023-01-17T12:14:01.809Z,43.85
2023-01-17T12:17:07.931Z,42.22
2023-01-17T12:20:01.662Z,42.57
2023-01-17T12:23:14.066Z,42.60
2023-01-17T12:26:04.298Z,43.29
2023-01-17T12:28:44.972Z,44.14
2023-01-17T12:31:38.371Z,44.58
2023-01-17T12:34:28.000Z,43.97
2023-01-17T12:37:05.199Z,44.04
2023-01-17T12:39:39.308Z,44.22
2023-01-17T12:42:22.428Z,44.38
2023-01-17T12:44:57.906Z,43.01
2023-01-17T12:47:26.865Z,43.24
2023-01-17T12:50:18.689Z,43.32
2023-01-17T12:53:03.137Z,43.60
2023-01-17T12:56:00.700Z,44.13
2023-01-17T12:58:38.606Z,44.48
2023-01-17T13:01:39.917Z,44.29
2023-01-17T13:04:46.892Z,45.16
2023-01-17T13:07:38.018Z,45.17
2023-01-17T13:10:32.069Z,44.90
2023-01-17T13:13:12.390Z,45.34
2023-01-17T13:15:43.119Z,45.01
2023-01-17T13:18:18.176Z,44.22
2023-01-17T13:20:46.435Z,44.41
2023-01-17T13:23:40.597Z,45.19
2023-01-17T13:26:34.169Z,46.10
2023-01-17T13:29:27.336Z,46.64
2023-01-17T13:32:28.887Z,46.82
2023-01-17T13:35:03.221Z,47.09
2023-01-17T13:37:37.233Z,47.72
2023-01-17T13:40:54.191Z,48.53
2023-01-17T13:43:26.347Z,49.33
2023-01-17T13:46:00.006Z,49.67
2023-01-17T13:48:31.346Z,50.36
2023-01-17T13:51:03.642Z,50.73
2023-01-17T13:53:33.332Z,51.00
2023-01-17T13:56:18.636Z,51.40
2023-01-17T13:58:58.042Z,51.76
2023-01-17T14:01:26.457Z,51.96
2023-01-17T14:03:55.304Z,52.11
2023-01-17T14:06:40.712Z,52.68
2023-01-17T14:09:24.522Z,52.86
2023-01-17T14:11:57.398Z,52.92
2023-01-17T14:14:41.134Z,53.03
2023-01-17T14:17:25.702Z,53.23
2023-01-17T14:20:01.193Z,53.51
2023-01-17T14:22:36.476Z,53.93
2023-01-17T14:25:15.349Z,54.57
2023-01-17T14:28:19.070Z,54.91
2023-01-17T14:30:55.370Z,55.27
2023-01-17T14:33:34.919Z,56.03
2023-01-17T14:36:23.360Z,56.33
2023-01-17T14:38:51.532Z,56.57
2023-01-17T14:41:24.803Z,57.05
2023-01-17T14:43:53.932Z,57.36
2023-01-17T14:46:34.909Z,57.77
2023-01-17T14:49:06.501Z,58.18
2023-01-17T14:51:35.620Z,59.71
2023-01-17T14:54:15.860Z,60.28
2023-01-17T14:56:44.664Z,61.03
2023-01-17T14:59:21.800Z,60.98
2023-01-17T15:02:07.082Z,60.83
2023-01-17T15:04:39.956Z,61.09
2023-01-17T15:07:17.012Z,61.79
2023-01-17T15:09:46.438Z,62.43
2023-01-17T15:12:15.912Z,63.87
2023-01-17T15:14:46.752Z,65.07
2023-01-17T15:17:25.054Z,67.42
2023-01-17T15:20:01.751Z,67.29
2023-01-17T15:22:30.880Z,67.00
2023-01-17T15:24:59.900Z,67.55
2023-01-17T15:27:28.886Z,68.69
2023-01-17T15:30:02.334Z,68.79
2023-01-17T15:32:33.845Z,69.03
2023-01-17T15:35:03.404Z,69.69
2023-01-17T15:37:34.941Z,70.22
2023-01-17T15:40:18.903Z,70.39
2023-01-17T15:42:59.499Z,70.12
2023-01-17T15:45:33.727Z,70.04
2023-01-17T15:48:45.154Z,70.27
2023-01-17T15:51:14.611Z,70.11
2023-01-17T15:53:44.833Z,70.11
2023-01-17T15:56:22.720Z,70.23
2023-01-17T15:58:51.411Z,70.65
2023-01-17T16:01:31.422Z,71.60
2023-01-17T16:04:00.291Z,71.49
2023-01-17T16:06:45.763Z,71.86
2023-01-17T16:09:25.062Z,71.94
2023-01-17T16:11:53.344Z,71.46
2023-01-17T16:14:21.718Z,71.14
2023-01-17T16:16:53.923Z,70.97
2023-01-17T16:19:22.983Z,71.03
2023-01-17T16:21:51.658Z,70.71
2023-01-17T16:24:19.980Z,70.78
2023-01-17T16:26:50.053Z,72.27
2023-01-17T16:29:20.793Z,73.24
2023-01-17T16:31:49.171Z,73.03
2023-01-17T16:34:17.667Z,73.56
2023-01-17T16:36:46.653Z,74.06
2023-01-17T16:39:16.359Z,74.24
2023-01-17T16:41:44.986Z,73.65
2023-01-17T16:44:13.007Z,73.30
2023-01-17T16:46:41.278Z,73.11
2023-01-17T16:49:09.611Z,72.95
2023-01-17T16:51:38.951Z,72.99
2023-01-17T16:54:07.133Z,73.12
2023-01-17T16:56:35.707Z,73.13
2023-01-17T16:59:03.993Z,73.17
2023-01-17T17:01:32.531Z,73.17
2023-01-17T17:04:01.047Z,72.93
2023-01-17T17:06:31.451Z,72.64
2023-01-17T17:09:02.795Z,72.90
2023-01-17T17:11:31.095Z,72.95
2023-01-17T17:14:00.398Z,72.72
2023-01-17T17:16:30.721Z,72.85
2023-01-17T17:19:01.598Z,72.66
2023-01-17T17:21:32.805Z,72.50
2023-01-17T17:24:01.997Z,72.36
2023-01-17T17:26:34.193Z,72.21
2023-01-17T17:29:03.104Z,71.97
2023-01-17T17:31:31.882Z,71.91
2023-01-17T17:34:03.898Z,71.76
2023-01-17T17:36:33.729Z,71.81
2023-01-17T17:39:04.567Z,71.94
2023-01-17T17:41:34.771Z,72.10
2023-01-17T17:44:04.118Z,72.16
2023-01-17T17:46:35.189Z,72.01
2023-01-17T17:49:05.123Z,72.21
2023-01-17T17:51:39.448Z,72.57
2023-01-17T17:54:10.634Z,72.92
2023-01-17T17:56:39.902Z,73.18
2023-01-17T17:59:09.925Z,73.18
2023-01-17T18:01:38.954Z,73.30
2023-01-17T18:04:09.003Z,73.63
2023-01-17T18:06:38.690Z,73.60
2023-01-17T18:09:09.188Z,73.48
2023-01-17T18:11:39.738Z,73.33
2023-01-17T18:14:12.877Z,73.53
2023-01-17T18:16:43.673Z,73.68
2023-01-17T18:19:20.375Z,73.83
2023-01-17T18:21:51.450Z,73.98
2023-01-17T18:24:22.103Z,74.23
2023-01-17T18:26:57.809Z,74.06
2023-01-17T18:29:27.416Z,74.18
2023-01-17T18:31:56.818Z,74.30
2023-01-17T18:34:29.612Z,74.76
2023-01-17T18:36:58.995Z,74.74
2023-01-17T18:39:30.105Z,74.97
2023-01-17T18:41:59.151Z,75.25
2023-01-17T18:44:28.218Z,75.41
2023-01-17T18:47:05.097Z,75.59
2023-01-17T18:49:35.274Z,75.62
2023-01-17T18:52:03.589Z,75.70
2023-01-17T18:54:34.012Z,75.80
2023-01-17T18:57:02.094Z,75.89
2023-01-17T18:59:30.458Z,76.04
2023-01-17T19:01:59.165Z,76.22
2023-01-17T19:04:28.765Z,76.25
2023-01-17T19:06:57.246Z,76.29
2023-01-17T19:09:25.815Z,76.42
2023-01-17T19:11:53.893Z,76.33
2023-01-17T19:14:22.694Z,76.48
2023-01-17T19:16:51.062Z,76.60
2023-01-17T19:19:20.249Z,76.61
2023-01-17T19:21:51.693Z,76.55
2023-01-17T19:24:20.187Z,76.59
2023-01-17T19:26:54.195Z,76.77
2023-01-17T19:29:23.097Z,76.72
2023-01-17T19:31:51.355Z,76.56
2023-01-17T19:34:20.461Z,76.70
2023-01-17T19:36:49.156Z,76.57
2023-01-17T19:39:17.630Z,76.68
2023-01-17T19:41:47.150Z,76.83
2023-01-17T19:44:15.662Z,76.79
2023-01-17T19:46:47.399Z,76.79
2023-01-17T19:49:19.816Z,76.96
2023-01-17T19:51:49.758Z,77.13
2023-01-17T19:54:18.341Z,77.04
2023-01-17T19:56:46.699Z,77.43
2023-01-17T19:59:15.493Z,77.65
2023-01-17T20:01:43.744Z,77.59
2023-01-17T20:04:12.973Z,77.66
2023-01-17T20:06:42.161Z,77.90
2023-01-17T20:09:10.331Z,78.22
2023-01-17T20:11:42.301Z,78.21
2023-01-17T20:14:14.273Z,78.28
2023-01-17T20:16:44.085Z,78.74
2023-01-17T20:19:12.170Z,78.86
2023-01-17T20:21:40.526Z,78.76
2023-01-17T20:24:11.248Z,78.77
2023-01-17T20:26:40.976Z,78.59
2023-01-17T20:29:13.346Z,78.45
2023-01-17T20:31:43.080Z,78.55
2023-01-17T20:34:13.644Z,78.71
2023-01-17T20:36:42.477Z,78.70
2023-01-17T20:39:13.597Z,78.90
2023-01-17T20:41:43.716Z,79.25
2023-01-17T20:44:15.288Z,79.56
2023-01-17T20:46:44.065Z,79.50
2023-01-17T20:49:15.772Z,79.27
2023-01-17T20:51:45.493Z,79.16
2023-01-17T20:54:15.661Z,78.88
2023-01-17T20:56:46.874Z,78.74
2023-01-17T20:59:18.554Z,78.66
2023-01-17T21:01:47.326Z,78.73
2023-01-17T21:04:16.800Z,78.87
2023-01-17T21:06:45.328Z,78.87
2023-01-17T21:09:15.436Z,78.98
2023-01-17T21:11:43.730Z,79.28
2023-01-17T21:14:11.968Z,79.38
2023-01-17T21:16:40.737Z,79.64
2023-01-17T21:19:12.194Z,79.79
2023-01-17T21:21:40.723Z,80.23
2023-01-17T21:24:09.400Z,80.60
2023-01-17T21:26:39.038Z,80.66
2023-01-17T21:29:08.703Z,80.89
2023-01-17T21:31:38.830Z,80.89
2023-01-17T21:34:08.627Z,80.97
2023-01-17T21:36:39.697Z,81.14
2023-01-17T21:39:13.369Z,81.74
2023-01-17T21:41:43.225Z,82.09
2023-01-17T21:44:20.348Z,81.95
2023-01-17T21:46:49.574Z,82.15
2023-01-17T21:49:18.255Z,82.33
2023-01-17T21:51:55.296Z,82.84
2023-01-17T21:54:45.055Z,82.92
2023-01-17T21:57:33.569Z,82.75
2023-01-17T22:00:01.594Z,83.01
2023-01-17T22:02:29.724Z,82.83
2023-01-17T22:04:57.987Z,83.15
2023-01-17T22:07:29.279Z,83.45
2023-01-17T22:09:57.706Z,83.73
2023-01-17T22:12:26.185Z,83.64
2023-01-17T22:14:54.666Z,83.56
2023-01-17T22:17:22.904Z,83.67
2023-01-17T22:19:51.216Z,83.68
2023-01-17T22:22:19.317Z,83.71
2023-01-17T22:24:47.351Z,83.42
2023-01-17T22:27:15.433Z,83.07
2023-01-17T22:29:43.391Z,83.23
2023-01-17T22:32:11.381Z,83.47
2023-01-17T22:34:39.558Z,83.46
2023-01-17T22:37:10.307Z,83.59
2023-01-17T22:39:39.265Z,83.65
2023-01-17T22:42:07.759Z,84.21
2023-01-17T22:44:36.016Z,83.88
2023-01-17T22:47:04.067Z,84.22
2023-01-17T22:49:32.139Z,84.20
2023-01-17T22:52:00.849Z,84.00
2023-01-17T22:54:29.010Z,84.46
2023-01-17T22:56:57.088Z,84.70
2023-01-17T22:59:25.261Z,84.48
2023-01-17T23:01:53.633Z,84.02
2023-01-17T23:04:21.601Z,84.32
2023-01-17T23:06:49.664Z,84.16
2023-01-17T23:09:18.049Z,84.56
2023-01-17T23:11:52.833Z,84.71
2023-01-17T23:14:24.031Z,84.58
2023-01-17T23:17:14.626Z,84.95
2023-01-17T23:19:43.932Z,84.89
2023-01-17T23:22:21.220Z,84.87
2023-01-17T23:24:50.949Z,85.12
2023-01-17T23:27:45.507Z,85.21
2023-01-17T23:30:16.467Z,85.00
2023-01-17T23:32:56.635Z,85.60
2023-01-17T23:35:33.534Z,85.81
2023-01-17T23:38:21.004Z,85.78
2023-01-17T23:41:07.913Z,86.06
2023-01-17T23:43:37.392Z,87.56
2023-01-17T23:46:05.808Z,88.62
2023-01-17T23:48:33.877Z,89.65
2023-01-17T23:51:09.628Z,90.10
2023-01-17T23:53:38.951Z,90.39
2023-01-17T23:56:14.884Z,90.70
2023-01-17T23:58:43.157Z,90.27
